Terminal Aerodrome Forecast
Issued by NWS Wakefield, VA

Home | Current Version | Previous Version | Text Only | Print | Product List | Glossary On
Versions: 1 2 3 4 5 6 7 8 9 10 11 12 13
000
FTUS41 KAKQ 282300
TAFRIC
TAF
KRIC 282320Z 2900/2924 26005KT P6SM -RA BKN040 OVC070
     FM290300 34008KT 6SM -RA BR SCT020 OVC035
     FM290700 02007KT 5SM -RA BR BKN020 OVC040
     FM291200 03008KT 3SM -RA BR BKN009 OVC020
     FM291900 05007KT 5SM -RA BR OVC008=

USA.gov is the U.S. government's official web portal to all federal, state and local government web resources and services.